createdAt,value
2018-09-30T00:02:03.336Z,9.90
2018-09-30T00:04:32.879Z,10.13
2018-09-30T00:07:02.541Z,10.17
2018-09-30T00:09:32.623Z,11.17
2018-09-30T00:12:03.441Z,10.43
2018-09-30T00:14:32.933Z,10.93
2018-09-30T00:17:02.387Z,10.67
2018-09-30T00:19:31.960Z,10.73
2018-09-30T00:22:01.393Z,10.70
2018-09-30T00:24:35.985Z,9.80
2018-09-30T00:27:22.238Z,10.00
2018-09-30T00:29:51.817Z,10.20
2018-09-30T00:32:21.343Z,10.40
2018-09-30T00:34:50.892Z,9.80
2018-09-30T00:37:20.354Z,10.10
2018-09-30T00:39:49.909Z,9.00
2018-09-30T00:42:19.710Z,8.83
2018-09-30T00:44:49.300Z,9.27
2018-09-30T00:47:18.808Z,8.23
2018-09-30T00:49:48.531Z,8.80
2018-09-30T00:52:18.020Z,9.57
2018-09-30T00:54:47.743Z,9.50
2018-09-30T00:57:17.205Z,9.70
2018-09-30T00:59:46.672Z,8.67
2018-09-30T01:02:16.360Z,8.80
2018-09-30T01:04:45.922Z,8.57
2018-09-30T01:07:15.372Z,9.30
2018-09-30T01:09:44.933Z,9.00
2018-09-30T01:12:14.681Z,9.13
2018-09-30T01:14:44.235Z,8.97
2018-09-30T01:17:13.696Z,9.57
2018-09-30T01:19:43.468Z,10.43
2018-09-30T01:22:12.913Z,11.27
2018-09-30T01:24:42.444Z,10.17
2018-09-30T01:27:11.919Z,11.87
2018-09-30T01:29:41.468Z,11.00
2018-09-30T01:32:10.895Z,10.27
2018-09-30T01:34:40.431Z,9.83
2018-09-30T01:37:10.341Z,9.57
2018-09-30T01:39:39.907Z,9.53
2018-09-30T01:42:09.554Z,9.20
2018-09-30T01:44:39.121Z,9.20
2018-09-30T01:47:08.568Z,9.03
2018-09-30T01:49:38.122Z,8.90
2018-09-30T01:52:18.907Z,8.77
2018-09-30T01:54:48.746Z,8.27
2018-09-30T01:57:18.309Z,9.30
2018-09-30T01:59:47.859Z,8.67
2018-09-30T02:02:17.614Z,8.63
2018-09-30T02:04:47.378Z,8.97
2018-09-30T02:07:17.086Z,8.67
2018-09-30T02:09:46.803Z,9.23
2018-09-30T02:12:16.504Z,9.27
2018-09-30T02:14:46.048Z,9.57
2018-09-30T02:17:15.820Z,10.00
2018-09-30T02:19:45.374Z,11.30
2018-09-30T02:22:14.852Z,11.87
2018-09-30T02:24:44.537Z,10.27
2018-09-30T02:27:14.349Z,10.40
2018-09-30T02:29:43.984Z,10.17
2018-09-30T02:32:13.766Z,9.70
2018-09-30T02:34:43.475Z,9.90
2018-09-30T02:37:13.016Z,10.53
2018-09-30T02:39:42.605Z,10.40
2018-09-30T02:42:12.805Z,10.43
2018-09-30T02:44:42.469Z,10.13
2018-09-30T02:47:11.943Z,9.23
2018-09-30T02:49:41.738Z,9.70
2018-09-30T02:52:11.160Z,9.20
2018-09-30T02:54:40.683Z,8.40
2018-09-30T02:57:10.192Z,8.87
2018-09-30T02:59:39.954Z,8.90
2018-09-30T03:02:09.370Z,9.13
2018-09-30T03:04:38.907Z,7.93
2018-09-30T03:07:13.780Z,7.50
2018-09-30T03:09:43.940Z,6.93
2018-09-30T03:12:13.449Z,7.20
2018-09-30T03:14:42.996Z,7.57
2018-09-30T03:17:13.508Z,7.83
2018-09-30T03:19:43.003Z,7.40
2018-09-30T03:22:12.657Z,7.37
2018-09-30T03:24:42.264Z,8.33
2018-09-30T03:27:11.881Z,8.10
2018-09-30T03:29:41.579Z,7.73
2018-09-30T03:32:11.020Z,7.97
2018-09-30T03:34:40.799Z,7.90
2018-09-30T03:37:10.565Z,7.80
2018-09-30T03:39:46.605Z,7.73
2018-09-30T03:42:16.369Z,8.00
2018-09-30T03:44:46.093Z,7.60
2018-09-30T03:47:16.597Z,7.90
2018-09-30T03:49:46.094Z,8.17
2018-09-30T03:52:15.596Z,8.40
2018-09-30T03:54:45.121Z,8.23
2018-09-30T03:57:14.624Z,7.57
2018-09-30T03:59:44.064Z,7.90
2018-09-30T04:02:13.631Z,7.90
2018-09-30T04:04:43.392Z,8.13
2018-09-30T04:07:12.827Z,7.43
2018-09-30T04:09:42.576Z,7.30
2018-09-30T04:12:12.010Z,7.83
2018-09-30T04:14:41.427Z,7.10
2018-09-30T04:17:11.006Z,7.20
2018-09-30T04:19:40.403Z,7.43
2018-09-30T04:22:09.909Z,8.27
2018-09-30T04:24:39.476Z,8.17
2018-09-30T04:27:09.089Z,8.00
2018-09-30T04:29:38.692Z,7.77
2018-09-30T04:32:08.208Z,7.30
2018-09-30T04:34:37.651Z,7.27
2018-09-30T04:37:07.244Z,7.63
2018-09-30T04:39:36.705Z,7.50
2018-09-30T04:42:06.627Z,7.83
2018-09-30T04:44:36.095Z,8.23
2018-09-30T04:47:05.677Z,8.00
2018-09-30T04:49:35.100Z,7.67
2018-09-30T04:52:04.557Z,7.17
2018-09-30T04:54:34.013Z,7.17
2018-09-30T04:57:03.441Z,7.53
2018-09-30T04:59:33.025Z,7.60
2018-09-30T05:02:02.604Z,6.80
2018-09-30T05:04:32.047Z,8.93
2018-09-30T05:07:01.803Z,8.43
2018-09-30T05:09:31.370Z,9.40
2018-09-30T05:12:01.189Z,8.00
2018-09-30T05:14:30.691Z,8.10
2018-09-30T05:17:00.393Z,7.97
2018-09-30T05:19:29.930Z,7.90
2018-09-30T05:21:59.464Z,6.80
2018-09-30T05:24:29.174Z,7.80
2018-09-30T05:26:58.716Z,7.40
2018-09-30T05:29:28.272Z,7.50
2018-09-30T05:31:57.755Z,6.67
2018-09-30T05:34:27.614Z,6.40
2018-09-30T05:36:57.149Z,6.87
2018-09-30T05:39:26.854Z,7.47
2018-09-30T05:41:56.477Z,6.83
2018-09-30T05:44:26.270Z,6.90
2018-09-30T05:46:55.864Z,6.97
2018-09-30T05:49:25.306Z,7.63
2018-09-30T05:51:54.842Z,7.93
2018-09-30T05:54:24.344Z,7.13
2018-09-30T05:56:53.897Z,7.80
2018-09-30T05:59:23.323Z,7.73
2018-09-30T06:01:52.872Z,6.70
2018-09-30T06:04:22.410Z,6.60
2018-09-30T06:06:53.008Z,6.07
2018-09-30T06:09:22.701Z,6.77
2018-09-30T06:11:52.264Z,6.87
2018-09-30T06:14:22.567Z,6.37
2018-09-30T06:16:52.383Z,5.93
2018-09-30T06:19:21.878Z,5.87
2018-09-30T06:21:51.345Z,6.20
2018-09-30T06:24:21.000Z,5.13
2018-09-30T06:26:51.119Z,5.50
2018-09-30T06:29:20.631Z,5.10
2018-09-30T06:31:50.245Z,4.63
2018-09-30T06:34:19.957Z,4.53
2018-09-30T06:36:49.549Z,4.07
2018-09-30T06:39:19.020Z,3.90
2018-09-30T06:41:48.571Z,3.50
2018-09-30T06:44:18.267Z,3.60
2018-09-30T06:46:47.884Z,3.80
2018-09-30T06:49:17.474Z,3.20
2018-09-30T06:51:47.055Z,5.43
2018-09-30T06:54:16.608Z,6.10
2018-09-30T06:56:46.400Z,3.80
2018-09-30T06:59:16.208Z,6.20
2018-09-30T07:01:46.157Z,6.70
2018-09-30T07:04:15.932Z,6.10
2018-09-30T07:06:45.525Z,6.00
2018-09-30T07:09:15.102Z,6.00
2018-09-30T07:11:44.653Z,5.23
2018-09-30T07:14:14.256Z,4.60
2018-09-30T07:16:43.790Z,4.10
2018-09-30T07:19:13.367Z,3.50
2018-09-30T07:21:43.282Z,3.30
2018-09-30T07:24:12.989Z,3.23
2018-09-30T07:26:42.806Z,2.70
2018-09-30T07:29:12.583Z,2.90
2018-09-30T07:31:42.043Z,2.83
2018-09-30T07:34:11.726Z,2.60
2018-09-30T07:36:41.575Z,2.30
2018-09-30T07:39:11.887Z,2.63
2018-09-30T07:41:41.568Z,2.53
2018-09-30T07:44:12.061Z,2.50
2018-09-30T07:46:41.570Z,2.20
2018-09-30T07:49:11.115Z,2.20
2018-09-30T07:51:40.710Z,2.40
2018-09-30T07:54:10.369Z,2.00
2018-09-30T07:56:39.827Z,2.20
2018-09-30T07:59:09.691Z,2.17
2018-09-30T08:01:39.199Z,2.50
2018-09-30T08:04:09.063Z,2.17
2018-09-30T08:06:38.769Z,2.20
2018-09-30T08:09:09.229Z,2.60
2018-09-30T08:11:38.996Z,2.50
2018-09-30T08:14:08.808Z,2.10
2018-09-30T08:16:38.930Z,2.30
2018-09-30T08:19:08.428Z,1.90
2018-09-30T08:21:38.138Z,2.00
2018-09-30T08:24:08.101Z,2.20
2018-09-30T08:26:38.039Z,2.03
2018-09-30T08:29:07.811Z,2.00
2018-09-30T08:31:37.485Z,1.90
2018-09-30T08:34:09.140Z,2.10
2018-09-30T08:36:39.770Z,2.10
2018-09-30T08:39:10.208Z,1.70
2018-09-30T08:41:39.906Z,1.90
2018-09-30T08:44:09.636Z,1.90
2018-09-30T08:46:39.242Z,1.80
2018-09-30T08:49:08.940Z,1.63
2018-09-30T08:51:38.458Z,2.13
2018-09-30T08:54:08.276Z,1.80
2018-09-30T08:56:37.750Z,2.30
2018-09-30T08:59:07.562Z,1.60
2018-09-30T09:01:37.108Z,1.97
2018-09-30T09:04:06.700Z,1.80
2018-09-30T09:06:36.192Z,1.73
2018-09-30T09:09:11.620Z,1.73
2018-09-30T09:11:41.276Z,2.03
2018-09-30T09:14:10.940Z,1.80
2018-09-30T09:16:40.500Z,1.77
2018-09-30T09:19:10.152Z,1.57
2018-09-30T09:21:39.708Z,1.83
2018-09-30T09:24:09.258Z,1.70
2018-09-30T09:26:38.868Z,1.80
2018-09-30T09:29:08.412Z,1.80
2018-09-30T09:31:38.203Z,1.70
2018-09-30T09:34:08.100Z,1.60
2018-09-30T09:36:37.628Z,1.57
2018-09-30T09:39:09.604Z,1.70
2018-09-30T09:41:39.407Z,1.93
2018-09-30T09:44:09.183Z,1.30
2018-09-30T09:46:38.966Z,1.33
2018-09-30T09:49:08.416Z,1.50
2018-09-30T09:51:38.113Z,1.43
2018-09-30T09:54:08.129Z,1.57
2018-09-30T09:56:37.707Z,1.50
2018-09-30T09:59:07.439Z,1.77
2018-09-30T10:01:36.896Z,1.47
2018-09-30T10:04:06.552Z,1.80
2018-09-30T10:06:36.012Z,1.70
2018-09-30T10:09:06.764Z,1.80
2018-09-30T10:11:36.394Z,1.60
2018-09-30T10:14:05.997Z,1.50
2018-09-30T10:16:35.501Z,1.40
2018-09-30T10:19:04.941Z,1.70
2018-09-30T10:21:34.818Z,1.70
2018-09-30T10:24:04.423Z,1.60
2018-09-30T10:26:34.029Z,1.43
2018-09-30T10:29:03.436Z,1.30
2018-09-30T10:31:32.904Z,1.60
2018-09-30T10:34:02.465Z,1.50
2018-09-30T10:36:32.363Z,1.20
2018-09-30T10:39:02.004Z,1.50
2018-09-30T10:41:31.436Z,1.60
2018-09-30T10:44:01.277Z,1.43
2018-09-30T10:46:30.791Z,1.40
2018-09-30T10:49:00.390Z,1.40
2018-09-30T10:51:30.096Z,1.50
2018-09-30T10:53:59.836Z,1.30
2018-09-30T10:56:29.310Z,1.60
2018-09-30T10:58:58.743Z,1.47
2018-09-30T11:01:29.184Z,1.40
2018-09-30T11:03:59.104Z,1.53
2018-09-30T11:06:28.644Z,1.40
2018-09-30T11:08:58.084Z,1.30
2018-09-30T11:11:27.546Z,1.60
2018-09-30T11:13:57.024Z,1.30
2018-09-30T11:16:26.563Z,1.60
2018-09-30T11:18:56.024Z,1.50
2018-09-30T11:21:25.432Z,1.45
2018-09-30T11:23:54.920Z,1.43
2018-09-30T11:26:24.385Z,1.37
2018-09-30T11:28:53.836Z,1.40
2018-09-30T11:31:23.453Z,1.50
2018-09-30T11:33:53.227Z,1.30
2018-09-30T11:36:22.849Z,1.30
2018-09-30T11:38:52.275Z,1.40
2018-09-30T11:41:21.827Z,1.10
2018-09-30T11:43:51.287Z,1.30
2018-09-30T11:46:20.841Z,1.22
2018-09-30T11:48:50.330Z,1.30
2018-09-30T11:51:19.848Z,1.10
2018-09-30T11:53:49.329Z,1.30
2018-09-30T11:56:18.860Z,1.20
2018-09-30T11:58:48.453Z,1.20
2018-09-30T12:01:17.980Z,1.57
2018-09-30T12:03:47.458Z,1.40
2018-09-30T12:06:17.000Z,1.50
2018-09-30T12:08:46.468Z,1.30
2018-09-30T12:11:15.996Z,1.35
2018-09-30T12:13:45.451Z,1.35
2018-09-30T12:16:14.988Z,1.30
2018-09-30T12:18:44.472Z,1.30
2018-09-30T12:21:14.033Z,1.30
2018-09-30T12:23:43.460Z,1.30
2018-09-30T12:26:12.928Z,1.25
2018-09-30T12:28:42.412Z,1.30
2018-09-30T12:31:12.108Z,1.45
2018-09-30T12:33:41.606Z,1.22
2018-09-30T12:36:11.184Z,1.20
2018-09-30T12:38:40.614Z,1.37
2018-09-30T12:41:10.155Z,1.05
2018-09-30T12:43:39.605Z,1.35
2018-09-30T12:46:09.152Z,1.35
2018-09-30T12:48:38.609Z,1.30
2018-09-30T12:51:08.088Z,1.25
2018-09-30T12:53:37.511Z,1.45
2018-09-30T12:56:07.021Z,1.50
2018-09-30T12:58:36.471Z,1.20
2018-09-30T13:01:06.159Z,1.30
2018-09-30T13:03:35.683Z,1.30
2018-09-30T13:06:05.192Z,1.30
2018-09-30T13:08:34.656Z,1.40
2018-09-30T13:11:04.240Z,1.22
2018-09-30T13:13:33.785Z,1.07
2018-09-30T13:16:03.520Z,1.70
2018-09-30T13:18:33.203Z,1.02
2018-09-30T13:21:03.038Z,1.47
2018-09-30T13:23:32.397Z,1.40
2018-09-30T13:26:01.893Z,1.10
2018-09-30T13:28:31.628Z,1.30
2018-09-30T13:31:01.089Z,1.25
2018-09-30T13:33:30.576Z,1.70
2018-09-30T13:36:00.141Z,1.10
2018-09-30T13:38:29.584Z,1.20
2018-09-30T13:40:59.344Z,1.35
2018-09-30T13:43:28.859Z,1.22
2018-09-30T13:45:58.379Z,1.30
2018-09-30T13:48:28.071Z,1.20
2018-09-30T13:50:57.630Z,1.25
2018-09-30T13:53:29.230Z,1.45
2018-09-30T13:55:58.940Z,1.17
2018-09-30T13:58:28.403Z,1.27
2018-09-30T14:00:57.916Z,1.00
2018-09-30T14:03:27.379Z,1.10
2018-09-30T14:05:56.920Z,1.25
2018-09-30T14:08:26.382Z,1.20
2018-09-30T14:10:55.792Z,1.27
2018-09-30T14:13:25.470Z,1.20
2018-09-30T14:15:54.907Z,1.20
2018-09-30T14:18:24.395Z,1.20
2018-09-30T14:20:53.838Z,1.10
2018-09-30T14:23:23.304Z,1.20
2018-09-30T14:25:52.803Z,1.20
2018-09-30T14:28:22.256Z,1.10
2018-09-30T14:30:52.208Z,1.17
2018-09-30T14:33:21.616Z,1.25
2018-09-30T14:35:51.173Z,1.05
2018-09-30T14:38:20.783Z,1.05
2018-09-30T14:40:50.632Z,1.30
2018-09-30T14:43:20.112Z,1.07
2018-09-30T14:45:49.726Z,1.20
2018-09-30T14:48:19.318Z,1.30
2018-09-30T14:50:48.739Z,1.15
2018-09-30T14:53:18.224Z,1.00
2018-09-30T14:55:47.699Z,1.30
2018-09-30T14:58:17.116Z,1.20
2018-09-30T15:00:46.636Z,1.17
2018-09-30T15:03:16.123Z,1.32
2018-09-30T15:05:45.879Z,1.20
2018-09-30T15:08:15.521Z,1.10
2018-09-30T15:10:44.989Z,1.32
2018-09-30T15:13:14.494Z,2.60
2018-09-30T15:15:43.952Z,1.25
2018-09-30T15:18:13.379Z,1.35
2018-09-30T15:20:42.856Z,1.35
2018-09-30T15:23:12.455Z,1.17
2018-09-30T15:25:42.024Z,1.17
2018-09-30T15:28:11.481Z,1.20
2018-09-30T15:30:41.238Z,1.20
2018-09-30T15:33:10.940Z,1.27
2018-09-30T15:35:40.364Z,1.30
2018-09-30T15:38:09.905Z,1.27
2018-09-30T15:40:39.459Z,1.30
2018-09-30T15:43:08.960Z,1.20
2018-09-30T15:45:38.425Z,1.27
2018-09-30T15:48:08.032Z,1.30
2018-09-30T15:50:37.565Z,1.05
2018-09-30T15:53:07.227Z,0.95
2018-09-30T15:55:36.652Z,1.00
2018-09-30T15:58:06.201Z,0.97
2018-09-30T16:00:35.709Z,1.17
2018-09-30T16:03:06.140Z,1.00
2018-09-30T16:05:36.049Z,1.17
2018-09-30T16:08:05.742Z,1.20
2018-09-30T16:10:35.525Z,1.00
2018-09-30T16:13:05.103Z,1.10
2018-09-30T16:15:35.541Z,0.90
2018-09-30T16:18:05.006Z,0.97
2018-09-30T16:20:34.496Z,1.10
2018-09-30T16:23:04.852Z,1.00
2018-09-30T16:25:34.327Z,1.30
2018-09-30T16:28:03.855Z,1.40
2018-09-30T16:30:33.534Z,1.73
2018-09-30T16:33:03.045Z,1.40
2018-09-30T16:35:32.537Z,1.80
2018-09-30T16:38:02.080Z,1.50
2018-09-30T16:40:33.363Z,1.60
2018-09-30T16:43:02.916Z,1.47
2018-09-30T16:45:33.188Z,1.80
2018-09-30T16:48:02.656Z,1.70
2018-09-30T16:50:32.252Z,1.60
2018-09-30T16:53:01.943Z,1.63
2018-09-30T16:55:31.655Z,1.50
2018-09-30T16:58:02.196Z,1.70
2018-09-30T17:00:32.559Z,1.83
2018-09-30T17:03:02.134Z,1.40
2018-09-30T17:05:31.620Z,1.93
2018-09-30T17:08:01.144Z,3.23
2018-09-30T17:10:30.662Z,3.77
2018-09-30T17:13:00.186Z,5.60
2018-09-30T17:15:29.632Z,15.30
2018-09-30T17:17:59.191Z,8.80
2018-09-30T17:20:29.815Z,8.07
2018-09-30T17:22:59.352Z,6.37
2018-09-30T17:25:28.804Z,6.47
2018-09-30T17:27:58.899Z,6.10
2018-09-30T17:30:28.431Z,5.70
2018-09-30T17:32:57.951Z,5.73
2018-09-30T17:35:27.461Z,4.60
2018-09-30T17:37:57.041Z,4.97
2018-09-30T17:40:26.452Z,4.17
2018-09-30T17:42:56.430Z,3.63
2018-09-30T17:45:25.880Z,2.90
2018-09-30T17:47:55.660Z,2.00
2018-09-30T17:50:25.384Z,2.30
2018-09-30T17:52:55.024Z,2.40
2018-09-30T17:55:24.670Z,2.23
2018-09-30T17:57:54.189Z,2.60
2018-09-30T18:00:23.883Z,2.60
2018-09-30T18:02:53.722Z,3.10
2018-09-30T18:05:23.623Z,4.13
2018-09-30T18:07:53.642Z,3.10
2018-09-30T18:10:23.444Z,2.40
2018-09-30T18:12:53.437Z,2.30
2018-09-30T18:15:23.077Z,2.43
2018-09-30T18:17:52.996Z,2.20
2018-09-30T18:20:24.446Z,2.50
2018-09-30T18:22:54.089Z,2.53
2018-09-30T18:25:23.677Z,2.53
2018-09-30T18:27:53.273Z,2.67
2018-09-30T18:30:22.745Z,2.40
2018-09-30T18:32:53.037Z,2.30
2018-09-30T18:35:22.781Z,3.17
2018-09-30T18:37:53.411Z,2.47
2018-09-30T18:40:23.032Z,2.77
2018-09-30T18:42:53.018Z,2.93
2018-09-30T18:45:22.850Z,3.20
2018-09-30T18:47:52.337Z,3.00
2018-09-30T18:50:21.941Z,3.00
2018-09-30T18:52:51.500Z,3.10
2018-09-30T18:55:21.274Z,2.73
2018-09-30T18:57:50.896Z,2.90
2018-09-30T19:00:20.588Z,2.80
2018-09-30T19:02:50.351Z,2.70
2018-09-30T19:05:20.052Z,2.80
2018-09-30T19:07:49.817Z,2.77
2018-09-30T19:10:19.595Z,2.70
2018-09-30T19:12:49.343Z,2.97
2018-09-30T19:15:18.843Z,3.10
2018-09-30T19:17:49.190Z,2.77
2018-09-30T19:20:19.648Z,2.83
2018-09-30T19:22:50.709Z,3.30
2018-09-30T19:25:20.452Z,3.00
2018-09-30T19:27:50.363Z,3.87
2018-09-30T19:30:20.068Z,3.80
2018-09-30T19:32:49.879Z,5.00
2018-09-30T19:35:19.596Z,5.40
2018-09-30T19:37:49.302Z,5.60
2018-09-30T19:40:19.008Z,5.87
2018-09-30T19:42:48.755Z,4.60
2018-09-30T19:45:18.328Z,5.20
2018-09-30T19:47:48.135Z,5.40
2018-09-30T19:50:17.615Z,6.17
2018-09-30T19:52:47.168Z,6.30
2018-09-30T19:55:17.756Z,5.17
2018-09-30T19:57:47.379Z,4.90
2018-09-30T20:00:16.901Z,4.50
2018-09-30T20:02:46.409Z,3.90
2018-09-30T20:05:15.923Z,3.50
2018-09-30T20:07:45.504Z,3.70
2018-09-30T20:10:14.983Z,3.43
2018-09-30T20:12:44.814Z,3.10
2018-09-30T20:15:14.297Z,3.87
2018-09-30T20:17:44.131Z,3.63
2018-09-30T20:20:13.795Z,3.87
2018-09-30T20:22:43.243Z,3.97
2018-09-30T20:25:12.776Z,3.80
2018-09-30T20:27:42.327Z,3.80
2018-09-30T20:30:11.859Z,3.80
2018-09-30T20:32:41.463Z,3.63
2018-09-30T20:35:11.108Z,3.50
2018-09-30T20:37:40.984Z,3.30
2018-09-30T20:40:10.487Z,3.73
2018-09-30T20:42:40.212Z,3.33
2018-09-30T20:45:09.853Z,3.40
2018-09-30T20:47:39.373Z,3.50
2018-09-30T20:50:08.861Z,3.47
2018-09-30T20:52:38.357Z,3.40
2018-09-30T20:55:07.868Z,3.70
2018-09-30T20:57:37.409Z,3.23
2018-09-30T21:00:06.876Z,3.40
2018-09-30T21:02:36.408Z,3.50
2018-09-30T21:07:13.349Z,3.43
2018-09-30T21:09:43.034Z,3.37
2018-09-30T21:12:12.846Z,3.20
2018-09-30T21:14:45.824Z,3.40
2018-09-30T21:17:16.840Z,3.00
2018-09-30T21:19:47.604Z,3.50
2018-09-30T21:22:17.209Z,3.10
2018-09-30T21:24:46.820Z,4.60
2018-09-30T21:27:16.480Z,16.80
2018-09-30T21:29:46.238Z,9.07
2018-09-30T21:32:15.708Z,5.20
2018-09-30T21:34:45.868Z,2.90
2018-09-30T21:37:15.497Z,2.87
2018-09-30T21:39:45.178Z,2.80
2018-09-30T21:42:14.681Z,2.63
2018-09-30T21:44:44.290Z,2.47
2018-09-30T21:47:13.751Z,2.97
2018-09-30T21:49:43.499Z,3.03
2018-09-30T21:52:13.004Z,2.70
2018-09-30T21:54:43.328Z,5.00
2018-09-30T21:57:13.199Z,4.23
2018-09-30T21:59:42.764Z,3.00
2018-09-30T22:02:12.351Z,2.60
2018-09-30T22:04:41.964Z,2.90
2018-09-30T22:07:12.595Z,2.50
2018-09-30T22:09:42.401Z,3.00
2018-09-30T22:12:12.026Z,3.27
2018-09-30T22:14:41.848Z,3.23
2018-09-30T22:17:11.996Z,3.00
2018-09-30T22:19:41.851Z,3.23
2018-09-30T22:22:11.398Z,2.80
2018-09-30T22:24:40.976Z,2.60
2018-09-30T22:27:10.638Z,2.50
2018-09-30T22:29:40.170Z,2.80
2018-09-30T22:32:09.647Z,2.60
2018-09-30T22:34:39.288Z,2.73
2018-09-30T22:37:08.811Z,2.70
2018-09-30T22:39:38.316Z,2.30
2018-09-30T22:42:08.023Z,2.70
2018-09-30T22:44:37.640Z,2.47
2018-09-30T22:47:07.525Z,2.40
2018-09-30T22:49:37.563Z,2.33
2018-09-30T22:52:07.516Z,2.70
2018-09-30T22:54:37.132Z,2.87
2018-09-30T22:57:06.950Z,2.70
2018-09-30T22:59:36.537Z,2.47
2018-09-30T23:02:06.470Z,2.47
2018-09-30T23:04:36.072Z,2.47
2018-09-30T23:07:05.672Z,2.50
2018-09-30T23:09:35.521Z,2.80
2018-09-30T23:12:05.230Z,2.37
2018-09-30T23:14:34.940Z,2.80
2018-09-30T23:17:04.473Z,2.87
2018-09-30T23:19:34.159Z,2.60
2018-09-30T23:22:03.703Z,2.80
2018-09-30T23:24:33.169Z,2.67
2018-09-30T23:27:02.924Z,2.70
2018-09-30T23:29:32.443Z,2.73
2018-09-30T23:32:01.919Z,2.93
2018-09-30T23:34:31.557Z,2.63
2018-09-30T23:37:01.110Z,3.27
2018-09-30T23:39:30.596Z,3.40
2018-09-30T23:42:00.098Z,3.07
2018-09-30T23:44:29.528Z,3.30
2018-09-30T23:46:59.109Z,2.77
2018-09-30T23:49:28.512Z,3.10
2018-09-30T23:51:57.911Z,3.27
2018-09-30T23:54:27.482Z,3.67
2018-09-30T23:56:57.229Z,3.60
2018-09-30T23:59:26.730Z,3.20
